Climatologie pour Saint-Brevin les Pins
Jour • Résumé pour mars 18, 2017 Système :  Métrique    Anglais   Mixte
« - 1 jour
+ 1 jour »
Jour Semaine Mois Année Personnalisé
  Maximum : Minimum : Moyenne :
Température sous abri : 13.3 °C 7.2 °C 10.6 °C
Point de rosée : 11.4 °C 5.1 °C 9.2 °C
Humidité : 97 % 86 % 92 %
Vitesse du vent : 25.7 km/h 1.6 km/h 9.4 km/h
Rafale : 32.2 km/h - -
Direction :- - WNW
Pression : 1023.2 hPa 1021.6 hPa -
Précipitations : 0.0 mm    
Historical Graphs
 
 
Tableau de données pour mars 18, 2017
Heure Tempé Pt rosée Pression Vent Vitesse Rafale Humidité Taux pluie (/hr) Soleil
00:00 7.4 °C 5.5 °C 1023.2 hPa NW 6.4 km/h 12.9 km/h 88 % 0.0 mm 0 W/m2
00:10 7.4 °C 5.4 °C 1023.2 hPa NW 6.4 km/h 14.5 km/h 87 % 0.0 mm 0 W/m2
00:15 7.3 °C 5.3 °C 1023.2 hPa NW 6.4 km/h 14.5 km/h 87 % 0.0 mm 0 W/m2
00:20 7.3 °C 5.3 °C 1023.2 hPa WNW 6.4 km/h 14.5 km/h 87 % 0.0 mm 0 W/m2
00:25 7.3 °C 5.3 °C 1023.2 hPa NW 4.8 km/h 12.9 km/h 87 % 0.0 mm 0 W/m2
00:30 7.3 °C 5.3 °C 1023.2 hPa WNW 4.8 km/h 16.1 km/h 87 % 0.0 mm 0 W/m2
00:35 7.2 °C 5.1 °C 1023.2 hPa WNW 4.8 km/h 16.1 km/h 87 % 0.0 mm 0 W/m2
00:40 7.2 °C 5.1 °C 1023.2 hPa WNW 8.0 km/h 11.3 km/h 87 % 0.0 mm 0 W/m2
00:45 7.3 °C 5.3 °C 1023.2 hPa WNW 4.8 km/h 11.3 km/h 87 % 0.0 mm 0 W/m2
00:50 7.3 °C 5.3 °C 1023.2 hPa WNW 3.2 km/h 9.7 km/h 87 % 0.0 mm 0 W/m2
00:55 7.3 °C 5.3 °C 1023.2 hPa WNW 4.8 km/h 9.7 km/h 87 % 0.0 mm 0 W/m2
01:00 7.3 °C 5.3 °C 1023.2 hPa WNW 3.2 km/h 11.3 km/h 87 % 0.0 mm 0 W/m2
01:15 7.4 °C 5.4 °C 1022.9 hPa WNW 1.6 km/h 9.7 km/h 87 % 0.0 mm 0 W/m2
01:20 7.3 °C 5.5 °C 1022.9 hPa NW 9.7 km/h 11.3 km/h 88 % 0.0 mm 0 W/m2
01:25 7.4 °C 5.5 °C 1022.9 hPa West 4.8 km/h 12.9 km/h 88 % 0.0 mm 0 W/m2
01:30 7.4 °C 5.5 °C 1022.9 hPa WNW 1.6 km/h 12.9 km/h 88 % 0.0 mm 0 W/m2
01:35 7.2 °C 5.5 °C 1022.9 hPa NW 4.8 km/h 9.7 km/h 89 % 0.0 mm 0 W/m2
01:40 7.3 °C 5.6 °C 1022.9 hPa WNW 3.2 km/h 9.7 km/h 89 % 0.0 mm 0 W/m2
01:45 7.4 °C 5.9 °C 1022.9 hPa WNW 4.8 km/h 9.7 km/h 90 % 0.0 mm 0 W/m2
01:55 7.6 °C 5.9 °C 1022.9 hPa WNW 6.4 km/h 11.3 km/h 89 % 0.0 mm 0 W/m2
02:00 7.7 °C 6.2 °C 1022.9 hPa WNW 6.4 km/h 9.7 km/h 90 % 0.0 mm 0 W/m2
02:05 7.8 °C 6.3 °C 1022.9 hPa West 9.7 km/h 9.7 km/h 90 % 0.0 mm 0 W/m2
02:10 7.9 °C 6.2 °C 1022.9 hPa WNW 3.2 km/h 12.9 km/h 89 % 0.0 mm 0 W/m2
02:15 8.1 °C 6.4 °C 1022.9 hPa WNW 9.7 km/h 12.9 km/h 89 % 0.0 mm 0 W/m2
02:20 8.2 °C 6.5 °C 1022.6 hPa West 1.6 km/h 12.9 km/h 89 % 0.0 mm 0 W/m2
02:25 8.1 °C 6.2 °C 1022.6 hPa West 9.7 km/h 12.9 km/h 88 % 0.0 mm 0 W/m2
02:35 8.3 °C 6.4 °C 1022.9 hPa NW 6.4 km/h 14.5 km/h 88 % 0.0 mm 0 W/m2
02:40 8.4 °C 6.6 °C 1022.6 hPa NW 9.7 km/h 17.7 km/h 88 % 0.0 mm 0 W/m2
02:45 8.6 °C 6.7 °C 1022.6 hPa WNW 11.3 km/h 17.7 km/h 88 % 0.0 mm 0 W/m2
02:50 8.7 °C 6.8 °C 1022.6 hPa WNW 8.0 km/h 20.9 km/h 88 % 0.0 mm 0 W/m2
02:55 8.9 °C 7.0 °C 1022.6 hPa NW 8.0 km/h 22.5 km/h 88 % 0.0 mm 0 W/m2
03:00 9.1 °C 7.0 °C 1022.6 hPa West 11.3 km/h 22.5 km/h 87 % 0.0 mm 0 W/m2
03:05 9.1 °C 6.8 °C 1022.6 hPa WNW 16.1 km/h 22.5 km/h 86 % 0.0 mm 0 W/m2
03:10 9.1 °C 6.9 °C 1022.6 hPa WNW 14.5 km/h 25.7 km/h 86 % 0.0 mm 0 W/m2
03:15 9.2 °C 7.0 °C 1022.6 hPa WNW 4.8 km/h 25.7 km/h 86 % 0.0 mm 0 W/m2
03:20 9.2 °C 7.0 °C 1022.6 hPa NW 17.7 km/h 25.7 km/h 86 % 0.0 mm 0 W/m2
03:25 9.3 °C 7.1 °C 1022.2 hPa NW 12.9 km/h 19.3 km/h 86 % 0.0 mm 0 W/m2
03:30 9.3 °C 7.1 °C 1022.2 hPa NW 8.0 km/h 22.5 km/h 86 % 0.0 mm 0 W/m2
03:40 9.4 °C 7.2 °C 1022.2 hPa WNW 16.1 km/h 32.2 km/h 86 % 0.0 mm 0 W/m2
03:45 9.5 °C 7.3 °C 1022.2 hPa NW 20.9 km/h 32.2 km/h 86 % 0.0 mm 0 W/m2
03:50 9.5 °C 7.3 °C 1021.9 hPa WNW 19.3 km/h 24.1 km/h 86 % 0.0 mm 0 W/m2
03:55 9.6 °C 7.6 °C 1022.2 hPa WNW 20.9 km/h 30.6 km/h 87 % 0.0 mm 0 W/m2
04:00 9.6 °C 7.6 °C 1022.2 hPa WNW 12.9 km/h 30.6 km/h 87 % 0.0 mm 0 W/m2
04:05 9.6 °C 7.4 °C 1022.2 hPa NW 8.0 km/h 25.7 km/h 86 % 0.0 mm 0 W/m2
04:10 9.6 °C 7.5 °C 1022.2 hPa West 16.1 km/h 25.7 km/h 87 % 0.0 mm 0 W/m2
04:20 9.7 °C 7.6 °C 1022.2 hPa NW 17.7 km/h 30.6 km/h 87 % 0.0 mm 0 W/m2
04:25 9.7 °C 7.6 °C 1021.9 hPa WNW 16.1 km/h 30.6 km/h 87 % 0.0 mm 0 W/m2
04:30 9.7 °C 7.6 °C 1021.9 hPa NW 16.1 km/h 30.6 km/h 87 % 0.0 mm 0 W/m2
04:40 9.7 °C 7.6 °C 1021.9 hPa WNW 14.5 km/h 19.3 km/h 87 % 0.0 mm 0 W/m2
04:45 9.7 °C 7.7 °C 1021.9 hPa WNW 14.5 km/h 22.5 km/h 87 % 0.0 mm 0 W/m2
04:50 9.7 °C 7.8 °C 1021.9 hPa West 4.8 km/h 22.5 km/h 88 % 0.0 mm 0 W/m2
04:55 9.7 °C 7.8 °C 1021.9 hPa NW 6.4 km/h 24.1 km/h 88 % 0.0 mm 0 W/m2
05:00 9.7 °C 7.8 °C 1021.9 hPa NW 11.3 km/h 24.1 km/h 88 % 0.0 mm 0 W/m2
05:05 9.8 °C 7.9 °C 1021.9 hPa NW 9.7 km/h 20.9 km/h 88 % 0.0 mm 0 W/m2
05:10 9.8 °C 7.9 °C 1021.9 hPa West 16.1 km/h 20.9 km/h 88 % 0.0 mm 0 W/m2
05:15 9.7 °C 7.8 °C 1021.9 hPa West 11.3 km/h 20.9 km/h 88 % 0.0 mm 0 W/m2
05:20 9.7 °C 7.8 °C 1021.9 hPa NW 6.4 km/h 20.9 km/h 88 % 0.0 mm 0 W/m2
05:25 9.7 °C 7.8 °C 1021.9 hPa WNW 16.1 km/h 22.5 km/h 88 % 0.0 mm 0 W/m2
05:30 9.7 °C 7.8 °C 1021.9 hPa WNW 17.7 km/h 22.5 km/h 88 % 0.0 mm 0 W/m2
05:35 9.7 °C 7.8 °C 1021.6 hPa WNW 11.3 km/h 24.1 km/h 88 % 0.0 mm 0 W/m2
05:40 9.8 °C 7.9 °C 1021.6 hPa West 11.3 km/h 24.1 km/h 88 % 0.0 mm 0 W/m2
05:45 9.8 °C 8.1 °C 1021.9 hPa NW 11.3 km/h 22.5 km/h 89 % 0.0 mm 0 W/m2
05:50 9.8 °C 8.1 °C 1021.9 hPa West 6.4 km/h 24.1 km/h 89 % 0.0 mm 0 W/m2
05:55 9.8 °C 8.2 °C 1021.9 hPa WNW 6.4 km/h 24.1 km/h 90 % 0.0 mm 0 W/m2
06:00 9.8 °C 8.2 °C 1021.9 hPa WNW 11.3 km/h 22.5 km/h 90 % 0.0 mm 0 W/m2
06:10 9.8 °C 8.2 °C 1021.9 hPa NW 16.1 km/h 24.1 km/h 90 % 0.0 mm 0 W/m2
06:15 9.8 °C 8.3 °C 1021.9 hPa WNW 6.4 km/h 24.1 km/h 90 % 0.0 mm 0 W/m2
06:20 9.8 °C 8.3 °C 1021.9 hPa WNW 19.3 km/h 24.1 km/h 90 % 0.0 mm 0 W/m2
06:25 9.9 °C 8.3 °C 1021.9 hPa WNW 11.3 km/h 24.1 km/h 90 % 0.0 mm 0 W/m2
06:30 9.9 °C 8.3 °C 1021.9 hPa West 11.3 km/h 19.3 km/h 90 % 0.0 mm 0 W/m2
06:35 9.9 °C 8.3 °C 1021.9 hPa West 12.9 km/h 19.3 km/h 90 % 0.0 mm 0 W/m2
06:40 9.9 °C 8.3 °C 1021.9 hPa West 9.7 km/h 25.7 km/h 90 % 0.0 mm 0 W/m2
06:45 9.9 °C 8.4 °C 1021.9 hPa West 11.3 km/h 25.7 km/h 90 % 0.0 mm 0 W/m2
06:50 9.9 °C 8.4 °C 1021.9 hPa WNW 14.5 km/h 29.0 km/h 90 % 0.0 mm 0 W/m2
06:55 10.0 °C 8.4 °C 1022.2 hPa West 4.8 km/h 29.0 km/h 90 % 0.0 mm 0 W/m2
07:00 10.0 °C 8.4 °C 1021.9 hPa WNW 9.7 km/h 24.1 km/h 90 % 0.0 mm 0 W/m2
07:05 9.9 °C 8.4 °C 1021.9 hPa West 16.1 km/h 24.1 km/h 90 % 0.0 mm 0 W/m2
07:10 9.9 °C 8.5 °C 1022.2 hPa WNW 12.9 km/h 25.7 km/h 91 % 0.0 mm 0 W/m2
07:15 9.9 °C 8.5 °C 1021.9 hPa NNW 9.7 km/h 29.0 km/h 91 % 0.0 mm 0 W/m2
07:20 9.9 °C 8.5 °C 1022.2 hPa WNW 8.0 km/h 29.0 km/h 91 % 0.0 mm 0 W/m2
07:25 9.9 °C 8.5 °C 1022.2 hPa West 8.0 km/h 17.7 km/h 91 % 0.0 mm 0 W/m2
07:30 9.9 °C 8.6 °C 1022.2 hPa WNW 6.4 km/h 19.3 km/h 92 % 0.0 mm 5 W/m2
07:40 9.9 °C 8.6 °C 1022.2 hPa WNW 14.5 km/h 25.7 km/h 92 % 0.0 mm 9 W/m2
07:45 9.9 °C 8.8 °C 1022.2 hPa WNW 9.7 km/h 24.1 km/h 93 % 0.0 mm 11 W/m2
07:50 9.9 °C 8.8 °C 1022.2 hPa WNW 8.0 km/h 20.9 km/h 93 % 0.0 mm 12 W/m2
07:55 9.9 °C 8.8 °C 1022.2 hPa West 14.5 km/h 20.9 km/h 93 % 0.0 mm 14 W/m2
08:00 9.9 °C 8.8 °C 1022.6 hPa WNW 14.5 km/h 24.1 km/h 93 % 0.0 mm 14 W/m2
08:05 9.8 °C 8.9 °C 1022.6 hPa NW 25.7 km/h 25.7 km/h 94 % 0.0 mm 26 W/m2
08:10 9.8 °C 8.9 °C 1022.2 hPa West 16.1 km/h 25.7 km/h 94 % 0.0 mm 26 W/m2
08:15 9.8 °C 8.9 °C 1022.6 hPa WNW 4.8 km/h 25.7 km/h 94 % 0.0 mm 26 W/m2
08:20 9.8 °C 8.9 °C 1022.6 hPa NW 9.7 km/h 25.7 km/h 94 % 0.0 mm 33 W/m2
08:25 9.8 °C 8.9 °C 1022.6 hPa WNW 11.3 km/h 22.5 km/h 94 % 0.0 mm 37 W/m2
08:30 9.9 °C 9.0 °C 1022.6 hPa WNW 6.4 km/h 22.5 km/h 94 % 0.0 mm 49 W/m2
08:35 9.9 °C 9.0 °C 1022.6 hPa WSW 9.7 km/h 19.3 km/h 94 % 0.0 mm 37 W/m2
08:40 9.9 °C 9.2 °C 1022.6 hPa WNW 4.8 km/h 19.3 km/h 95 % 0.0 mm 39 W/m2
08:45 9.9 °C 9.2 °C 1022.6 hPa WNW 4.8 km/h 19.3 km/h 95 % 0.0 mm 44 W/m2
08:50 9.9 °C 9.2 °C 1022.6 hPa WNW 8.0 km/h 19.3 km/h 95 % 0.0 mm 35 W/m2
08:55 10.0 °C 9.2 °C 1022.6 hPa WNW 6.4 km/h 19.3 km/h 95 % 0.0 mm 51 W/m2
09:00 10.0 °C 9.2 °C 1022.6 hPa WNW 6.4 km/h 19.3 km/h 95 % 0.0 mm 47 W/m2
09:05 10.0 °C 9.2 °C 1022.6 hPa WNW 8.0 km/h 19.3 km/h 95 % 0.0 mm 53 W/m2
09:10 10.1 °C 9.3 °C 1022.6 hPa WNW 6.4 km/h 19.3 km/h 95 % 0.0 mm 67 W/m2
09:15 10.2 °C 9.6 °C 1022.6 hPa NW 11.3 km/h 19.3 km/h 96 % 0.0 mm 98 W/m2
09:20 10.2 °C 9.6 °C 1022.6 hPa WNW 11.3 km/h 22.5 km/h 96 % 0.0 mm 81 W/m2
09:25 10.2 °C 9.6 °C 1022.6 hPa WNW 6.4 km/h 22.5 km/h 96 % 0.0 mm 74 W/m2
09:30 10.2 °C 9.6 °C 1022.9 hPa WNW 11.3 km/h 20.9 km/h 96 % 0.0 mm 95 W/m2
09:40 10.4 °C 9.8 °C 1022.9 hPa West 8.0 km/h 22.5 km/h 96 % 0.0 mm 113 W/m2
09:45 10.5 °C 9.9 °C 1022.9 hPa WNW 12.9 km/h 19.3 km/h 96 % 0.0 mm 130 W/m2
09:50 10.6 °C 9.8 °C 1022.9 hPa WNW 4.8 km/h 19.3 km/h 95 % 0.0 mm 113 W/m2
09:55 10.6 °C 9.8 °C 1022.9 hPa West 8.0 km/h 19.3 km/h 95 % 0.0 mm 100 W/m2
10:00 10.7 °C 9.9 °C 1022.9 hPa West 8.0 km/h 19.3 km/h 95 % 0.0 mm 114 W/m2
10:05 10.7 °C 9.9 °C 1022.9 hPa WNW 9.7 km/h 17.7 km/h 95 % 0.0 mm 123 W/m2
10:10 10.7 °C 10.0 °C 1022.9 hPa West 11.3 km/h 17.7 km/h 95 % 0.0 mm 77 W/m2
10:15 10.8 °C 10.0 °C 1023.2 hPa West 11.3 km/h 19.3 km/h 95 % 0.0 mm 98 W/m2
10:20 10.8 °C 10.0 °C 1022.9 hPa WNW 16.1 km/h 19.3 km/h 95 % 0.0 mm 81 W/m2
10:25 10.8 °C 9.9 °C 1023.2 hPa WSW 11.3 km/h 19.3 km/h 94 % 0.0 mm 105 W/m2
10:30 10.8 °C 10.1 °C 1023.2 hPa WNW 6.4 km/h 20.9 km/h 95 % 0.0 mm 107 W/m2
10:35 10.8 °C 9.9 °C 1023.2 hPa WNW 3.2 km/h 20.9 km/h 94 % 0.0 mm 98 W/m2
10:40 10.8 °C 9.9 °C 1023.2 hPa West 9.7 km/h 19.3 km/h 94 % 0.0 mm 98 W/m2
10:45 10.8 °C 9.9 °C 1023.2 hPa West 3.2 km/h 19.3 km/h 94 % 0.0 mm 118 W/m2
10:50 10.9 °C 10.2 °C 1022.9 hPa West 8.0 km/h 17.7 km/h 95 % 0.0 mm 125 W/m2
10:55 11.0 °C 10.1 °C 1022.9 hPa WSW 17.7 km/h 20.9 km/h 94 % 0.0 mm 162 W/m2
11:00 11.2 °C 10.2 °C 1022.9 hPa WNW 11.3 km/h 20.9 km/h 94 % 0.0 mm 221 W/m2
11:10 11.7 °C 10.6 °C 1022.9 hPa WNW 8.0 km/h 22.5 km/h 93 % 0.0 mm 281 W/m2
11:15 11.7 °C 10.6 °C 1022.9 hPa West 11.3 km/h 22.5 km/h 93 % 0.0 mm 250 W/m2
11:20 11.7 °C 10.4 °C 1022.9 hPa West 11.3 km/h 20.9 km/h 92 % 0.0 mm 207 W/m2
11:25 11.7 °C 10.4 °C 1022.9 hPa West 8.0 km/h 22.5 km/h 92 % 0.0 mm 297 W/m2
11:35 12.1 °C 10.9 °C 1022.9 hPa WSW 8.0 km/h 19.3 km/h 92 % 0.0 mm 380 W/m2
11:40 12.0 °C 10.6 °C 1023.2 hPa West 16.1 km/h 19.3 km/h 91 % 0.0 mm 311 W/m2
11:45 12.1 °C 10.7 °C 1022.9 hPa West 8.0 km/h 20.9 km/h 91 % 0.0 mm 343 W/m2
11:50 12.4 °C 10.8 °C 1022.9 hPa West 4.8 km/h 22.5 km/h 90 % 0.0 mm 385 W/m2
11:55 12.6 °C 11.0 °C 1022.9 hPa WNW 9.7 km/h 22.5 km/h 90 % 0.0 mm 439 W/m2
12:00 12.7 °C 11.1 °C 1022.9 hPa WNW 16.1 km/h 24.1 km/h 90 % 0.0 mm 450 W/m2
12:05 12.9 °C 11.0 °C 1022.6 hPa West 9.7 km/h 24.1 km/h 88 % 0.0 mm 599 W/m2
12:10 12.9 °C 10.9 °C 1022.6 hPa West 6.4 km/h 22.5 km/h 88 % 0.0 mm 649 W/m2
12:15 13.3 °C 11.4 °C 1022.6 hPa WSW 16.1 km/h 22.5 km/h 88 % 0.0 mm 571 W/m2
12:20 12.9 °C 10.8 °C 1022.9 hPa WSW 12.9 km/h 24.1 km/h 87 % 0.0 mm 563 W/m2
12:25 13.1 °C 11.2 °C 1022.9 hPa SW 6.4 km/h 24.1 km/h 88 % 0.0 mm 622 W/m2
12:30 13.3 °C 11.0 °C 1022.9 hPa WNW 14.5 km/h 20.9 km/h 86 % 0.0 mm 457 W/m2
12:40 12.8 °C 10.9 °C 1022.9 hPa WSW 14.5 km/h 24.1 km/h 88 % 0.0 mm 322 W/m2
12:45 12.5 °C 10.6 °C 1022.9 hPa WNW 6.4 km/h 24.1 km/h 88 % 0.0 mm 332 W/m2
12:50 12.5 °C 10.7 °C 1022.9 hPa West 9.7 km/h 22.5 km/h 89 % 0.0 mm 301 W/m2
12:55 12.5 °C 10.7 °C 1022.9 hPa WSW 8.0 km/h 24.1 km/h 89 % 0.0 mm 234 W/m2
13:00 12.4 °C 10.7 °C 1022.9 hPa West 8.0 km/h 24.1 km/h 89 % 0.0 mm 218 W/m2
13:05 12.3 °C 10.7 °C 1022.6 hPa WNW 11.3 km/h 17.7 km/h 90 % 0.0 mm 260 W/m2
13:10 12.5 °C 10.9 °C 1022.6 hPa West 9.7 km/h 20.9 km/h 90 % 0.0 mm 459 W/m2
13:15 12.8 °C 11.2 °C 1022.6 hPa West 11.3 km/h 22.5 km/h 90 % 0.0 mm 390 W/m2
13:20 13.1 °C 11.3 °C 1022.6 hPa WNW 17.7 km/h 27.4 km/h 89 % 0.0 mm 533 W/m2
13:25 13.3 °C 11.3 °C 1022.6 hPa SW 12.9 km/h 27.4 km/h 88 % 0.0 mm 513 W/m2
13:30 13.2 °C 11.0 °C 1022.6 hPa West 8.0 km/h 22.5 km/h 87 % 0.0 mm 519 W/m2
13:35 13.2 °C 10.9 °C 1022.6 hPa WNW 12.9 km/h 25.7 km/h 86 % 0.0 mm 424 W/m2
13:40 12.9 °C 10.9 °C 1022.6 hPa WNW 16.1 km/h 25.7 km/h 88 % 0.0 mm 294 W/m2
13:45 12.8 °C 10.8 °C 1022.6 hPa West 6.4 km/h 24.1 km/h 88 % 0.0 mm 258 W/m2
13:50 12.8 °C 11.0 °C 1022.6 hPa West 14.5 km/h 24.1 km/h 89 % 0.0 mm 279 W/m2
13:55 12.7 °C 10.8 °C 1022.6 hPa West 8.0 km/h 22.5 km/h 88 % 0.0 mm 190 W/m2
14:00 12.5 °C 10.7 °C 1022.6 hPa West 19.3 km/h 24.1 km/h 89 % 0.0 mm 172 W/m2
14:05 12.3 °C 10.7 °C 1022.6 hPa WNW 4.8 km/h 24.1 km/h 90 % 0.0 mm 167 W/m2
14:10 12.2 °C 10.6 °C 1022.6 hPa West 11.3 km/h 22.5 km/h 90 % 0.0 mm 172 W/m2
14:15 12.3 °C 10.7 °C 1022.6 hPa WNW 9.7 km/h 20.9 km/h 90 % 0.0 mm 211 W/m2
14:20 12.3 °C 10.7 °C 1022.6 hPa WSW 6.4 km/h 20.9 km/h 90 % 0.0 mm 153 W/m2
14:25 12.3 °C 10.7 °C 1022.6 hPa West 8.0 km/h 20.9 km/h 90 % 0.0 mm 160 W/m2
14:30 12.1 °C 10.5 °C 1022.6 hPa WSW 12.9 km/h 24.1 km/h 90 % 0.0 mm 151 W/m2
14:35 12.1 °C 10.5 °C 1022.6 hPa West 6.4 km/h 24.1 km/h 90 % 0.0 mm 155 W/m2
14:40 12.2 °C 10.6 °C 1022.6 hPa WNW 14.5 km/h 20.9 km/h 90 % 0.0 mm 179 W/m2
14:45 12.3 °C 10.5 °C 1022.2 hPa WNW 9.7 km/h 20.9 km/h 89 % 0.0 mm 171 W/m2
14:50 12.4 °C 10.5 °C 1022.2 hPa WNW 11.3 km/h 22.5 km/h 88 % 0.0 mm 186 W/m2
14:55 12.6 °C 10.6 °C 1022.2 hPa West 12.9 km/h 22.5 km/h 88 % 0.0 mm 195 W/m2
15:00 12.5 °C 10.4 °C 1022.2 hPa NW 9.7 km/h 29.0 km/h 87 % 0.0 mm 160 W/m2
15:05 12.5 °C 10.4 °C 1022.2 hPa West 8.0 km/h 29.0 km/h 87 % 0.0 mm 151 W/m2
15:10 12.4 °C 10.3 °C 1022.2 hPa WNW 9.7 km/h 27.4 km/h 87 % 0.0 mm 127 W/m2
15:15 12.3 °C 10.3 °C 1022.2 hPa West 19.3 km/h 19.3 km/h 88 % 0.0 mm 127 W/m2
15:20 12.1 °C 10.3 °C 1022.2 hPa West 4.8 km/h 20.9 km/h 89 % 0.0 mm 118 W/m2
15:25 12.0 °C 10.2 °C 1022.2 hPa WNW 4.8 km/h 20.9 km/h 89 % 0.0 mm 130 W/m2
15:30 11.9 °C 10.4 °C 1022.2 hPa West 16.1 km/h 20.9 km/h 90 % 0.0 mm 142 W/m2
15:35 11.9 °C 10.3 °C 1021.9 hPa WNW 14.5 km/h 22.5 km/h 90 % 0.0 mm 174 W/m2
15:40 11.9 °C 10.4 °C 1022.2 hPa WNW 11.3 km/h 22.5 km/h 90 % 0.0 mm 160 W/m2
15:45 11.9 °C 10.5 °C 1022.2 hPa WNW 8.0 km/h 22.5 km/h 91 % 0.0 mm 207 W/m2
15:50 12.0 °C 10.6 °C 1022.2 hPa West 6.4 km/h 19.3 km/h 91 % 0.0 mm 162 W/m2
15:55 11.9 °C 10.4 °C 1022.2 hPa WNW 16.1 km/h 20.9 km/h 90 % 0.0 mm 146 W/m2
16:00 11.8 °C 10.4 °C 1021.9 hPa West 12.9 km/h 20.9 km/h 91 % 0.0 mm 139 W/m2
16:05 11.9 °C 10.5 °C 1021.9 hPa West 9.7 km/h 19.3 km/h 91 % 0.0 mm 127 W/m2
16:10 11.9 °C 10.3 °C 1021.9 hPa WNW 4.8 km/h 20.9 km/h 90 % 0.0 mm 107 W/m2
16:15 11.8 °C 10.2 °C 1021.9 hPa West 8.0 km/h 20.9 km/h 90 % 0.0 mm 114 W/m2
16:20 11.8 °C 10.2 °C 1021.9 hPa WNW 4.8 km/h 19.3 km/h 90 % 0.0 mm 111 W/m2
16:25 11.8 °C 10.4 °C 1021.9 hPa WNW 11.3 km/h 20.9 km/h 91 % 0.0 mm 107 W/m2
16:30 11.7 °C 10.2 °C 1021.9 hPa WNW 6.4 km/h 20.9 km/h 91 % 0.0 mm 105 W/m2
16:35 11.7 °C 10.4 °C 1021.9 hPa WNW 9.7 km/h 19.3 km/h 92 % 0.0 mm 125 W/m2
16:40 11.7 °C 10.4 °C 1021.9 hPa WNW 9.7 km/h 19.3 km/h 92 % 0.0 mm 113 W/m2
16:45 11.7 °C 10.4 °C 1021.6 hPa West 8.0 km/h 19.3 km/h 92 % 0.0 mm 114 W/m2
16:50 11.6 °C 10.4 °C 1021.6 hPa West 14.5 km/h 24.1 km/h 92 % 0.0 mm 97 W/m2
16:55 11.6 °C 10.3 °C 1021.6 hPa West 9.7 km/h 24.1 km/h 92 % 0.0 mm 105 W/m2
17:05 11.6 °C 10.3 °C 1021.9 hPa WNW 12.9 km/h 19.3 km/h 92 % 0.0 mm 88 W/m2
17:10 11.6 °C 10.3 °C 1021.9 hPa West 12.9 km/h 20.9 km/h 92 % 0.0 mm 102 W/m2
17:15 11.5 °C 10.2 °C 1021.9 hPa NW 8.0 km/h 20.9 km/h 92 % 0.0 mm 100 W/m2
17:20 11.6 °C 10.3 °C 1021.9 hPa West 12.9 km/h 17.7 km/h 92 % 0.0 mm 104 W/m2
17:25 11.5 °C 10.2 °C 1021.9 hPa West 6.4 km/h 20.9 km/h 92 % 0.0 mm 116 W/m2
17:30 11.6 °C 10.5 °C 1021.9 hPa West 6.4 km/h 20.9 km/h 93 % 0.0 mm 114 W/m2
17:35 11.6 °C 10.5 °C 1021.9 hPa WNW 8.0 km/h 17.7 km/h 93 % 0.0 mm 97 W/m2
17:40 11.5 °C 10.4 °C 1021.9 hPa West 8.0 km/h 16.1 km/h 93 % 0.0 mm 81 W/m2
17:50 11.4 °C 10.3 °C 1021.6 hPa West 14.5 km/h 19.3 km/h 93 % 0.0 mm 74 W/m2
17:55 11.4 °C 10.3 °C 1021.6 hPa WSW 3.2 km/h 19.3 km/h 93 % 0.0 mm 69 W/m2
18:00 11.3 °C 10.2 °C 1021.6 hPa NNW 11.3 km/h 19.3 km/h 93 % 0.0 mm 56 W/m2
18:05 11.3 °C 10.2 °C 1021.6 hPa SW 8.0 km/h 16.1 km/h 93 % 0.0 mm 51 W/m2
18:10 11.3 °C 10.2 °C 1021.6 hPa West 11.3 km/h 17.7 km/h 93 % 0.0 mm 63 W/m2
18:15 11.2 °C 10.1 °C 1021.6 hPa WSW 6.4 km/h 17.7 km/h 93 % 0.0 mm 62 W/m2
18:20 11.2 °C 10.1 °C 1021.9 hPa WSW 1.6 km/h 22.5 km/h 93 % 0.0 mm 58 W/m2
18:25 11.1 °C 10.2 °C 1021.9 hPa West 11.3 km/h 22.5 km/h 94 % 0.0 mm 44 W/m2
18:30 11.1 °C 10.0 °C 1021.9 hPa WNW 4.8 km/h 17.7 km/h 93 % 0.0 mm 30 W/m2
18:35 11.1 °C 10.1 °C 1021.9 hPa WNW 8.0 km/h 17.7 km/h 94 % 0.0 mm 21 W/m2
18:40 11.0 °C 10.1 °C 1021.9 hPa WSW 4.8 km/h 22.5 km/h 94 % 0.0 mm 14 W/m2
18:45 10.9 °C 10.0 °C 1021.9 hPa West 9.7 km/h 24.1 km/h 94 % 0.0 mm 11 W/m2
18:50 10.9 °C 10.0 °C 1021.9 hPa WNW 9.7 km/h 24.1 km/h 94 % 0.0 mm 9 W/m2
18:55 10.9 °C 10.0 °C 1021.9 hPa WNW 8.0 km/h 22.5 km/h 94 % 0.0 mm 7 W/m2
19:05 10.8 °C 10.1 °C 1021.9 hPa WNW 6.4 km/h 19.3 km/h 95 % 0.0 mm 0 W/m2
19:10 10.8 °C 10.1 °C 1021.9 hPa West 9.7 km/h 24.1 km/h 95 % 0.0 mm 0 W/m2
19:15 10.8 °C 10.1 °C 1021.9 hPa NW 9.7 km/h 24.1 km/h 95 % 0.0 mm 0 W/m2
19:20 10.8 °C 10.0 °C 1021.9 hPa WNW 9.7 km/h 19.3 km/h 95 % 0.0 mm 0 W/m2
19:25 10.8 °C 10.0 °C 1021.9 hPa WNW 3.2 km/h 19.3 km/h 95 % 0.0 mm 0 W/m2
19:30 10.7 °C 10.1 °C 1021.9 hPa West 14.5 km/h 22.5 km/h 96 % 0.0 mm 0 W/m2
19:35 10.7 °C 10.1 °C 1021.9 hPa West 9.7 km/h 22.5 km/h 96 % 0.0 mm 0 W/m2
19:40 10.7 °C 10.1 °C 1021.9 hPa West 4.8 km/h 16.1 km/h 96 % 0.0 mm 0 W/m2
19:45 10.7 °C 10.1 °C 1021.9 hPa West 8.0 km/h 16.1 km/h 96 % 0.0 mm 0 W/m2
19:50 10.7 °C 10.1 °C 1021.9 hPa WNW 3.2 km/h 16.1 km/h 96 % 0.0 mm 0 W/m2
19:55 10.7 °C 10.1 °C 1021.9 hPa WNW 3.2 km/h 17.7 km/h 96 % 0.0 mm 0 W/m2
20:00 10.7 °C 10.1 °C 1021.9 hPa WSW 11.3 km/h 17.7 km/h 96 % 0.0 mm 0 W/m2
20:05 10.7 °C 10.1 °C 1021.9 hPa WNW 17.7 km/h 19.3 km/h 96 % 0.0 mm 0 W/m2
20:10 10.7 °C 10.1 °C 1021.9 hPa WNW 8.0 km/h 19.3 km/h 96 % 0.0 mm 0 W/m2
20:15 10.7 °C 10.1 °C 1021.9 hPa West 9.7 km/h 17.7 km/h 96 % 0.0 mm 0 W/m2
20:20 10.7 °C 10.1 °C 1021.9 hPa WNW 4.8 km/h 17.7 km/h 96 % 0.0 mm 0 W/m2
20:25 10.7 °C 10.1 °C 1021.9 hPa NNW 4.8 km/h 17.7 km/h 96 % 0.0 mm 0 W/m2
20:30 10.7 °C 10.1 °C 1021.9 hPa WNW 3.2 km/h 19.3 km/h 96 % 0.0 mm 0 W/m2
20:40 10.7 °C 10.1 °C 1021.9 hPa WNW 3.2 km/h 16.1 km/h 96 % 0.0 mm 0 W/m2
20:45 10.7 °C 10.2 °C 1021.9 hPa West 6.4 km/h 16.1 km/h 97 % 0.0 mm 0 W/m2
20:50 10.7 °C 10.2 °C 1021.9 hPa West 16.1 km/h 16.1 km/h 97 % 0.0 mm 0 W/m2
20:55 10.7 °C 10.2 °C 1021.9 hPa West 6.4 km/h 16.1 km/h 97 % 0.0 mm 0 W/m2
21:00 10.7 °C 10.2 °C 1021.9 hPa West 3.2 km/h 17.7 km/h 97 % 0.0 mm 0 W/m2
21:05 10.7 °C 10.2 °C 1021.9 hPa West 9.7 km/h 17.7 km/h 97 % 0.0 mm 0 W/m2
21:10 10.7 °C 10.2 °C 1021.9 hPa WSW 12.9 km/h 14.5 km/h 97 % 0.0 mm 0 W/m2
21:15 10.7 °C 10.2 °C 1021.9 hPa West 8.0 km/h 14.5 km/h 97 % 0.0 mm 0 W/m2
21:20 10.7 °C 10.2 °C 1021.9 hPa West 6.4 km/h 12.9 km/h 97 % 0.0 mm 0 W/m2
21:25 10.7 °C 10.2 °C 1021.9 hPa WNW 4.8 km/h 14.5 km/h 97 % 0.0 mm 0 W/m2
21:35 10.7 °C 10.2 °C 1021.6 hPa WNW 4.8 km/h 14.5 km/h 97 % 0.0 mm 0 W/m2
21:40 10.7 °C 10.2 °C 1021.9 hPa WNW 3.2 km/h 14.5 km/h 97 % 0.0 mm 0 W/m2
21:50 10.7 °C 10.2 °C 1021.9 hPa West 6.4 km/h 17.7 km/h 97 % 0.0 mm 0 W/m2
21:55 10.7 °C 10.2 °C 1021.9 hPa WSW 8.0 km/h 16.1 km/h 97 % 0.0 mm 0 W/m2
22:00 10.7 °C 10.2 °C 1021.9 hPa WNW 6.4 km/h 16.1 km/h 97 % 0.0 mm 0 W/m2
22:10 10.6 °C 10.2 °C 1021.9 hPa WNW 9.7 km/h 14.5 km/h 97 % 0.0 mm 0 W/m2
22:15 10.6 °C 10.2 °C 1022.2 hPa WNW 3.2 km/h 14.5 km/h 97 % 0.0 mm 0 W/m2
22:20 10.7 °C 10.2 °C 1022.2 hPa West 1.6 km/h 16.1 km/h 97 % 0.0 mm 0 W/m2
22:25 10.7 °C 10.2 °C 1022.2 hPa WNW 3.2 km/h 16.1 km/h 97 % 0.0 mm 0 W/m2
22:30 10.7 °C 10.2 °C 1022.2 hPa West 8.0 km/h 12.9 km/h 97 % 0.0 mm 0 W/m2
22:35 10.7 °C 10.2 °C 1022.2 hPa West 14.5 km/h 20.9 km/h 97 % 0.0 mm 0 W/m2
22:40 10.7 °C 10.2 °C 1022.2 hPa WNW 9.7 km/h 20.9 km/h 97 % 0.0 mm 0 W/m2
22:45 10.7 °C 10.2 °C 1022.2 hPa NW 9.7 km/h 17.7 km/h 97 % 0.0 mm 0 W/m2
22:50 10.7 °C 10.2 °C 1022.2 hPa WNW 4.8 km/h 16.1 km/h 97 % 0.0 mm 0 W/m2
22:55 10.7 °C 10.2 °C 1022.2 hPa West 14.5 km/h 17.7 km/h 97 % 0.0 mm 0 W/m2
23:00 10.7 °C 10.2 °C 1022.2 hPa WNW 6.4 km/h 17.7 km/h 97 % 0.0 mm 0 W/m2
23:05 10.7 °C 10.2 °C 1022.2 hPa West 3.2 km/h 16.1 km/h 97 % 0.0 mm 0 W/m2
23:10 10.7 °C 10.1 °C 1021.9 hPa West 11.3 km/h 17.7 km/h 96 % 0.0 mm 0 W/m2
23:15 10.7 °C 10.1 °C 1022.2 hPa NW 6.4 km/h 17.7 km/h 96 % 0.0 mm 0 W/m2
23:20 10.6 °C 10.0 °C 1022.2 hPa WNW 4.8 km/h 16.1 km/h 96 % 0.0 mm 0 W/m2
23:25 10.6 °C 10.0 °C 1022.2 hPa WNW 4.8 km/h 16.1 km/h 96 % 0.0 mm 0 W/m2
23:30 10.6 °C 10.0 °C 1022.2 hPa West 9.7 km/h 16.1 km/h 96 % 0.0 mm 0 W/m2
23:35 10.6 °C 10.0 °C 1022.2 hPa WSW 8.0 km/h 16.1 km/h 96 % 0.0 mm 0 W/m2
23:40 10.6 °C 9.9 °C 1021.9 hPa WNW 6.4 km/h 16.1 km/h 96 % 0.0 mm 0 W/m2
23:45 10.6 °C 9.9 °C 1021.9 hPa WNW 4.8 km/h 16.1 km/h 96 % 0.0 mm 0 W/m2
23:50 10.6 °C 9.9 °C 1021.9 hPa WNW 4.8 km/h 16.1 km/h 96 % 0.0 mm 0 W/m2
23:55 10.6 °C 9.9 °C 1021.9 hPa West 4.8 km/h 16.1 km/h 96 % 0.0 mm 0 W/m2
Avec l'autorisation de Weather Underground - 1.5 mb